createdAt,value
2023-01-25T00:02:20.759Z,104036.38
2023-01-25T00:04:47.172Z,104037.34
2023-01-25T00:07:13.577Z,104025.31
2023-01-25T00:09:40.078Z,104016.69
2023-01-25T00:12:06.597Z,104024.28
2023-01-25T00:14:33.040Z,104027.53
2023-01-25T00:16:59.387Z,104023.97
2023-01-25T00:19:25.730Z,104026.50
2023-01-25T00:21:52.113Z,104026.59
2023-01-25T00:24:18.881Z,104029.25
2023-01-25T00:26:45.987Z,104015.38
2023-01-25T00:29:14.030Z,104016.31
2023-01-25T00:31:40.507Z,104015.38
2023-01-25T00:34:26.787Z,104016.22
2023-01-25T00:36:58.112Z,104010.94
2023-01-25T00:39:26.884Z,104011.78
2023-01-25T00:41:53.543Z,104015.38
2023-01-25T00:44:20.081Z,104011.13
2023-01-25T00:46:46.598Z,104012.03
2023-01-25T00:49:27.563Z,104004.94
2023-01-25T00:51:55.593Z,104006.56
2023-01-25T00:54:22.956Z,104003.00
2023-01-25T00:56:49.658Z,104003.78
2023-01-25T00:59:16.052Z,103998.56
2023-01-25T01:01:42.594Z,104002.03
2023-01-25T01:04:09.557Z,104004.69
2023-01-25T01:06:37.640Z,104003.81
2023-01-25T01:09:05.877Z,104003.00
2023-01-25T01:11:32.562Z,104001.22
2023-01-25T01:13:59.772Z,103999.50
2023-01-25T01:16:27.152Z,104001.22
2023-01-25T01:18:54.001Z,103996.03
2023-01-25T01:21:21.059Z,104004.75
2023-01-25T01:23:47.440Z,104003.03
2023-01-25T01:26:19.223Z,103994.38
2023-01-25T01:28:45.843Z,103991.78
2023-01-25T01:31:20.472Z,103991.75
2023-01-25T01:33:51.855Z,103999.22
2023-01-25T01:36:20.713Z,103995.63
2023-01-25T01:38:47.267Z,104000.16
2023-01-25T01:41:14.694Z,103991.44
2023-01-25T01:43:41.367Z,103985.34
2023-01-25T01:46:15.942Z,103987.16
2023-01-25T01:49:03.135Z,103983.84
2023-01-25T01:51:39.244Z,103985.53
2023-01-25T01:54:17.713Z,103985.44
2023-01-25T01:56:51.481Z,103985.47
2023-01-25T01:59:19.155Z,103977.69
2023-01-25T02:01:46.215Z,103978.59
2023-01-25T02:04:13.849Z,103978.47
2023-01-25T02:06:48.286Z,103981.94
2023-01-25T02:09:19.285Z,103970.66
2023-01-25T02:11:46.848Z,103968.97
2023-01-25T02:14:15.472Z,103972.22
2023-01-25T02:16:43.087Z,103969.69
2023-01-25T02:19:17.400Z,103973.13
2023-01-25T02:21:45.891Z,103963.66
2023-01-25T02:24:20.726Z,103964.59
2023-01-25T02:26:47.246Z,103960.31
2023-01-25T02:29:14.642Z,103959.47
2023-01-25T02:31:44.923Z,103961.19
2023-01-25T02:34:11.434Z,103959.44
2023-01-25T02:36:37.849Z,103959.31
2023-01-25T02:39:08.734Z,103962.75
2023-01-25T02:41:40.362Z,103960.91
2023-01-25T02:44:11.352Z,103957.47
2023-01-25T02:46:39.869Z,103955.72
2023-01-25T02:49:07.882Z,103954.91
2023-01-25T02:51:37.010Z,103945.47
2023-01-25T02:54:06.333Z,103956.69
2023-01-25T02:56:33.038Z,103947.97
2023-01-25T02:58:59.634Z,103954.88
2023-01-25T03:01:26.134Z,103941.94
2023-01-25T03:03:52.474Z,103934.97
2023-01-25T03:06:18.813Z,103939.31
2023-01-25T03:08:45.754Z,103928.94
2023-01-25T03:11:12.129Z,103934.13
2023-01-25T03:13:38.615Z,103931.50
2023-01-25T03:16:09.246Z,103927.94
2023-01-25T03:18:36.923Z,103930.59
2023-01-25T03:21:14.518Z,103928.09
2023-01-25T03:23:42.562Z,103926.38
2023-01-25T03:26:12.246Z,103926.34
2023-01-25T03:28:40.526Z,103918.56
2023-01-25T03:31:08.767Z,103910.75
2023-01-25T03:33:36.060Z,103919.31
2023-01-25T03:36:02.889Z,103908.84
2023-01-25T03:38:30.246Z,103909.47
2023-01-25T03:40:57.277Z,103896.63
2023-01-25T03:43:24.314Z,103891.41
2023-01-25T03:45:55.707Z,103895.66
2023-01-25T03:48:23.068Z,103885.34
2023-01-25T03:50:51.193Z,103887.16
2023-01-25T03:53:29.523Z,103886.31
2023-01-25T03:56:01.161Z,103891.50
2023-01-25T03:58:28.508Z,103892.31
2023-01-25T04:00:56.488Z,103890.63
2023-01-25T04:03:23.856Z,103887.22
2023-01-25T04:05:50.681Z,103886.34
2023-01-25T04:08:17.186Z,103888.00
2023-01-25T04:10:43.788Z,103882.88
2023-01-25T04:13:10.394Z,103882.88
2023-01-25T04:15:37.044Z,103890.63
2023-01-25T04:18:03.411Z,103886.16
2023-01-25T04:20:29.792Z,103886.16
2023-01-25T04:22:56.159Z,103883.44
2023-01-25T04:25:22.536Z,103887.69
2023-01-25T04:27:50.254Z,103885.00
2023-01-25T04:30:16.751Z,103885.91
2023-01-25T04:32:43.257Z,103880.81
2023-01-25T04:35:10.080Z,103874.84
2023-01-25T04:37:36.715Z,103864.41
2023-01-25T04:40:04.177Z,103865.41
2023-01-25T04:42:30.673Z,103864.59
2023-01-25T04:44:57.073Z,103860.22
2023-01-25T04:47:23.455Z,103855.78
2023-01-25T04:49:49.881Z,103856.63
2023-01-25T04:52:16.286Z,103847.06
2023-01-25T04:54:42.811Z,103849.41
2023-01-25T04:57:09.255Z,103855.94
2023-01-25T04:59:35.619Z,103849.19
2023-01-25T05:02:02.065Z,103851.97
2023-01-25T05:04:28.505Z,103854.63
2023-01-25T05:06:54.892Z,103858.13
2023-01-25T05:09:21.479Z,103856.31
2023-01-25T05:11:47.877Z,103854.59
2023-01-25T05:14:14.319Z,103858.00
2023-01-25T05:16:40.698Z,103851.13
2023-01-25T05:19:09.477Z,103850.25
2023-01-25T05:21:54.687Z,103846.00
2023-01-25T05:24:21.125Z,103841.63
2023-01-25T05:27:05.841Z,103838.16
2023-01-25T05:29:38.656Z,103839.94
2023-01-25T05:32:08.354Z,103831.28
2023-01-25T05:34:37.012Z,103830.41
2023-01-25T05:37:05.092Z,103835.31
2023-01-25T05:39:31.526Z,103834.44
2023-01-25T05:41:58.090Z,103830.06
2023-01-25T05:44:24.831Z,103824.63
2023-01-25T05:46:51.606Z,103831.47
2023-01-25T05:49:19.140Z,103834.75
2023-01-25T05:51:45.908Z,103832.22
2023-01-25T05:54:14.557Z,103845.00
2023-01-25T05:56:41.519Z,103851.31
2023-01-25T05:59:08.113Z,103844.50
2023-01-25T06:01:34.504Z,103836.75
2023-01-25T06:04:01.110Z,103843.59
2023-01-25T06:06:27.708Z,103850.75
2023-01-25T06:08:54.118Z,103847.59
2023-01-25T06:11:23.138Z,103857.28
2023-01-25T06:13:50.427Z,103850.44
2023-01-25T06:16:18.265Z,103851.41
2023-01-25T06:18:44.780Z,103857.50
2023-01-25T06:21:11.707Z,103849.66
2023-01-25T06:23:38.181Z,103843.75
2023-01-25T06:26:11.435Z,103847.91
2023-01-25T06:28:38.689Z,103858.28
2023-01-25T06:31:18.688Z,103853.88
2023-01-25T06:33:49.571Z,103853.00
2023-01-25T06:36:18.466Z,103851.22
2023-01-25T06:38:52.093Z,103852.13
2023-01-25T06:41:20.207Z,103853.78
2023-01-25T06:43:47.952Z,103841.81
2023-01-25T06:46:14.444Z,103846.94
2023-01-25T06:48:42.812Z,103852.81
2023-01-25T06:51:11.964Z,103851.19
2023-01-25T06:53:41.616Z,103858.97
2023-01-25T06:56:11.996Z,103856.34
2023-01-25T06:58:39.435Z,103854.31
2023-01-25T07:01:19.814Z,103844.81
2023-01-25T07:03:54.904Z,103848.50
2023-01-25T07:06:22.322Z,103839.94
2023-01-25T07:08:49.514Z,103835.75
2023-01-25T07:11:18.710Z,103832.22
2023-01-25T07:13:46.740Z,103830.19
2023-01-25T07:16:20.111Z,103824.78
2023-01-25T07:18:47.789Z,103817.66
2023-01-25T07:21:15.446Z,103826.19
2023-01-25T07:23:42.566Z,103828.72
2023-01-25T07:26:17.769Z,103822.78
2023-01-25T07:28:45.222Z,103832.25
2023-01-25T07:31:11.973Z,103826.22
2023-01-25T07:33:38.422Z,103831.09
2023-01-25T07:36:07.323Z,103838.75
2023-01-25T07:38:34.406Z,103831.53
2023-01-25T07:41:00.856Z,103832.38
2023-01-25T07:43:28.160Z,103834.38
2023-01-25T07:45:59.711Z,103828.56
2023-01-25T07:48:26.081Z,103820.00
2023-01-25T07:51:11.358Z,103813.25
2023-01-25T07:53:44.170Z,103813.31
2023-01-25T07:56:11.635Z,103811.56
2023-01-25T07:58:38.561Z,103820.06
2023-01-25T08:01:07.913Z,103810.94
2023-01-25T08:03:34.656Z,103805.03
2023-01-25T08:06:01.077Z,103800.75
2023-01-25T08:08:27.690Z,103792.28
2023-01-25T08:10:54.050Z,103800.88
2023-01-25T08:13:20.423Z,103789.91
2023-01-25T08:15:54.205Z,103799.94
2023-01-25T08:18:20.732Z,103799.88
2023-01-25T08:20:47.732Z,103801.50
2023-01-25T08:23:14.233Z,103794.69
2023-01-25T08:25:40.670Z,103807.34
2023-01-25T08:28:07.864Z,103802.19
2023-01-25T08:30:34.448Z,103806.63
2023-01-25T08:33:00.775Z,103800.72
2023-01-25T08:35:27.145Z,103801.50
2023-01-25T08:37:53.481Z,103798.91
2023-01-25T08:40:19.848Z,103798.13
2023-01-25T08:42:46.164Z,103797.44
2023-01-25T08:45:12.539Z,103791.41
2023-01-25T08:47:38.876Z,103789.84
2023-01-25T08:50:05.769Z,103783.03
2023-01-25T08:52:32.195Z,103777.84
2023-01-25T08:54:58.601Z,103778.47
2023-01-25T08:57:25.004Z,103772.97
2023-01-25T08:59:51.377Z,103770.47
2023-01-25T09:02:19.326Z,103778.16
2023-01-25T09:04:45.716Z,103774.06
2023-01-25T09:07:12.053Z,103766.28
2023-01-25T09:09:38.451Z,103773.19
2023-01-25T09:12:05.245Z,103780.03
2023-01-25T09:14:31.670Z,103764.63
2023-01-25T09:16:58.041Z,103765.53
2023-01-25T09:19:24.538Z,103755.25
2023-01-25T09:21:50.904Z,103761.25
2023-01-25T09:24:17.271Z,103760.31
2023-01-25T09:26:50.072Z,103759.53
2023-01-25T09:29:22.189Z,103757.94
2023-01-25T09:31:48.631Z,103759.63
2023-01-25T09:34:15.716Z,103757.75
2023-01-25T09:36:42.266Z,103751.00
2023-01-25T09:39:12.079Z,103751.91
2023-01-25T09:42:14.055Z,103754.44
2023-01-25T09:45:07.373Z,103745.00
2023-01-25T09:47:54.617Z,103741.53
2023-01-25T09:50:35.955Z,103744.78
2023-01-25T09:53:31.161Z,103750.31
2023-01-25T09:56:02.220Z,103738.19
2023-01-25T09:58:36.386Z,103741.34
2023-01-25T10:01:37.703Z,103748.09
2023-01-25T10:04:18.493Z,103744.09
2023-01-25T10:06:58.865Z,103749.47
2023-01-25T10:10:02.776Z,103737.75
2023-01-25T10:12:36.107Z,103729.28
2023-01-25T10:15:13.132Z,103719.03
2023-01-25T10:17:40.987Z,103715.47
2023-01-25T10:20:16.395Z,103705.16
2023-01-25T10:22:52.991Z,103711.88
2023-01-25T10:25:34.373Z,103705.78
2023-01-25T10:28:15.438Z,103706.00
2023-01-25T10:30:50.244Z,103701.91
2023-01-25T10:33:19.812Z,103688.78
2023-01-25T10:35:49.787Z,103682.38
2023-01-25T10:38:19.884Z,103681.69
2023-01-25T10:41:08.762Z,103680.03
2023-01-25T10:43:35.145Z,103673.63
2023-01-25T10:46:02.175Z,103675.56
2023-01-25T10:48:35.340Z,103679.75
2023-01-25T10:51:01.759Z,103672.69
2023-01-25T10:53:36.595Z,103666.81
2023-01-25T10:56:08.951Z,103664.44
2023-01-25T10:58:39.687Z,103663.25
2023-01-25T11:01:10.757Z,103651.75
2023-01-25T11:03:38.637Z,103651.81
2023-01-25T11:06:06.472Z,103646.97
2023-01-25T11:08:42.065Z,103637.16
2023-01-25T11:11:29.874Z,103637.41
2023-01-25T11:13:56.328Z,103629.56
2023-01-25T11:16:25.354Z,103618.28
2023-01-25T11:18:56.561Z,103615.63
2023-01-25T11:21:28.095Z,103614.84
2023-01-25T11:24:06.828Z,103616.50
2023-01-25T11:26:36.339Z,103612.91
2023-01-25T11:29:16.411Z,103596.44
2023-01-25T11:31:48.119Z,103594.78
2023-01-25T11:34:17.952Z,103581.69
2023-01-25T11:37:09.763Z,103583.44
2023-01-25T11:39:45.081Z,103580.09
2023-01-25T11:42:31.848Z,103569.00
2023-01-25T11:45:29.979Z,103563.59
2023-01-25T11:48:29.100Z,103550.00
2023-01-25T11:51:13.969Z,103545.59
2023-01-25T11:54:05.423Z,103540.66
2023-01-25T11:56:47.751Z,103531.09
2023-01-25T11:59:50.062Z,103521.59
2023-01-25T12:02:42.129Z,103513.44
2023-01-25T12:05:25.258Z,103501.56
2023-01-25T12:08:19.840Z,103490.56
2023-01-25T12:11:25.406Z,103481.34
2023-01-25T12:14:10.821Z,103476.09
2023-01-25T12:17:17.409Z,103470.84
2023-01-25T12:20:14.644Z,103464.78
2023-01-25T12:23:11.056Z,103463.09
2023-01-25T12:26:04.732Z,103451.91
2023-01-25T12:28:38.995Z,103445.25
2023-01-25T12:31:15.719Z,103452.81
2023-01-25T12:33:46.508Z,103445.41
2023-01-25T12:36:28.926Z,103442.59
2023-01-25T12:39:10.743Z,103443.28
2023-01-25T12:41:43.386Z,103441.84
2023-01-25T12:44:31.864Z,103427.41
2023-01-25T12:47:05.649Z,103421.53
2023-01-25T12:49:42.607Z,103418.94
2023-01-25T12:52:37.440Z,103410.22
2023-01-25T12:55:06.780Z,103408.44
2023-01-25T12:57:43.817Z,103401.59
2023-01-25T13:00:18.864Z,103389.53
2023-01-25T13:03:19.328Z,103374.78
2023-01-25T13:06:15.154Z,103373.97
2023-01-25T13:09:18.215Z,103379.16
2023-01-25T13:11:47.114Z,103375.53
2023-01-25T13:14:16.489Z,103377.13
2023-01-25T13:16:51.846Z,103382.00
2023-01-25T13:19:44.349Z,103388.25
2023-01-25T13:22:12.282Z,103383.78
2023-01-25T13:25:03.767Z,103378.56
2023-01-25T13:27:31.519Z,103385.31
2023-01-25T13:30:17.597Z,103371.31
2023-01-25T13:32:50.120Z,103375.56
2023-01-25T13:35:27.301Z,103367.69
2023-01-25T13:37:59.223Z,103365.31
2023-01-25T13:40:33.195Z,103369.66
2023-01-25T13:43:03.627Z,103364.59
2023-01-25T13:45:33.674Z,103353.38
2023-01-25T13:48:11.113Z,103349.44
2023-01-25T13:50:43.182Z,103348.84
2023-01-25T13:53:15.564Z,103344.47
2023-01-25T13:55:48.917Z,103332.22
2023-01-25T13:58:30.321Z,103327.25
2023-01-25T14:01:06.414Z,103318.81
2023-01-25T14:04:01.865Z,103322.25
2023-01-25T14:06:38.555Z,103321.97
2023-01-25T14:09:16.420Z,103319.56
2023-01-25T14:12:06.879Z,103313.47
2023-01-25T14:14:34.995Z,103308.16
2023-01-25T14:17:21.945Z,103317.53
2023-01-25T14:19:50.898Z,103317.19
2023-01-25T14:22:21.759Z,103303.38
2023-01-25T14:25:22.296Z,103304.41
2023-01-25T14:27:50.704Z,103301.66
2023-01-25T14:30:23.897Z,103296.50
2023-01-25T14:32:52.950Z,103311.13
2023-01-25T14:35:42.906Z,103306.69
2023-01-25T14:38:24.930Z,103311.03
2023-01-25T14:40:55.743Z,103320.34
2023-01-25T14:43:22.978Z,103311.78
2023-01-25T14:45:49.454Z,103307.47
2023-01-25T14:48:34.165Z,103303.22
2023-01-25T14:51:12.184Z,103310.41
2023-01-25T14:53:41.852Z,103307.97
2023-01-25T14:56:27.714Z,103311.50
2023-01-25T14:58:59.500Z,103306.31
2023-01-25T15:01:32.103Z,103306.31
2023-01-25T15:03:58.872Z,103297.47
2023-01-25T15:06:25.328Z,103304.09
2023-01-25T15:08:51.987Z,103305.84
2023-01-25T15:11:45.421Z,103306.03
2023-01-25T15:14:17.392Z,103297.47
2023-01-25T15:16:43.998Z,103294.16
2023-01-25T15:19:28.057Z,103290.63
2023-01-25T15:21:56.751Z,103294.22
2023-01-25T15:24:23.730Z,103285.69
2023-01-25T15:26:52.413Z,103277.06
2023-01-25T15:29:25.679Z,103276.16
2023-01-25T15:31:52.988Z,103267.47
2023-01-25T15:34:24.066Z,103267.47
2023-01-25T15:36:50.453Z,103261.56
2023-01-25T15:39:19.270Z,103261.50
2023-01-25T15:41:46.583Z,103261.56
2023-01-25T15:44:13.365Z,103258.13
2023-01-25T15:46:43.562Z,103260.47
2023-01-25T15:49:16.816Z,103252.47
2023-01-25T15:51:43.194Z,103250.59
2023-01-25T15:54:09.563Z,103249.41
2023-01-25T15:56:37.702Z,103257.09
2023-01-25T15:59:13.343Z,103263.31
2023-01-25T16:01:39.747Z,103270.31
2023-01-25T16:04:06.476Z,103280.59
2023-01-25T16:06:46.020Z,103273.66
2023-01-25T16:09:24.495Z,103271.78
2023-01-25T16:11:53.221Z,103267.44
2023-01-25T16:14:20.259Z,103267.50
2023-01-25T16:16:49.368Z,103276.97
2023-01-25T16:19:21.962Z,103274.38
2023-01-25T16:21:48.729Z,103287.94
2023-01-25T16:24:15.662Z,103277.31
2023-01-25T16:26:46.096Z,103281.78
2023-01-25T16:29:12.985Z,103285.41
2023-01-25T16:31:39.443Z,103281.81
2023-01-25T16:34:06.012Z,103281.00
2023-01-25T16:36:34.397Z,103268.25
2023-01-25T16:39:09.669Z,103264.06
2023-01-25T16:41:36.601Z,103252.03
2023-01-25T16:44:03.007Z,103251.38
2023-01-25T16:46:29.434Z,103261.75
2023-01-25T16:48:57.524Z,103255.69
2023-01-25T16:51:26.579Z,103259.00
2023-01-25T16:53:56.932Z,103246.13
2023-01-25T16:56:28.689Z,103226.63
2023-01-25T16:58:57.595Z,103215.59
2023-01-25T17:01:25.158Z,103214.00
2023-01-25T17:03:51.865Z,103206.38
2023-01-25T17:06:26.928Z,103197.81
2023-01-25T17:08:56.757Z,103187.56
2023-01-25T17:11:23.474Z,103184.16
2023-01-25T17:13:50.880Z,103177.31
2023-01-25T17:16:18.377Z,103173.03
2023-01-25T17:18:44.806Z,103169.59
2023-01-25T17:21:14.444Z,103162.75
2023-01-25T17:23:41.793Z,103134.28
2023-01-25T17:26:11.417Z,103131.72
2023-01-25T17:28:37.790Z,103122.22
2023-01-25T17:31:04.782Z,103117.03
2023-01-25T17:33:32.130Z,103107.53
2023-01-25T17:36:02.622Z,103097.19
2023-01-25T17:38:29.186Z,103096.31
2023-01-25T17:40:55.649Z,103085.16
2023-01-25T17:43:21.961Z,103085.97
2023-01-25T17:45:48.364Z,103074.78
2023-01-25T17:48:14.759Z,103064.44
2023-01-25T17:50:41.138Z,103066.13
2023-01-25T17:53:07.676Z,103059.19
2023-01-25T17:55:37.631Z,103070.41
2023-01-25T17:58:04.309Z,103051.41
2023-01-25T18:00:31.595Z,103058.31
2023-01-25T18:02:58.484Z,103065.16
2023-01-25T18:05:27.792Z,103064.31
2023-01-25T18:07:54.202Z,103061.75
2023-01-25T18:10:20.534Z,103066.88
2023-01-25T18:13:03.653Z,103053.88
2023-01-25T18:15:31.281Z,103043.50
2023-01-25T18:17:58.076Z,103045.31
2023-01-25T18:20:24.512Z,103037.53
2023-01-25T18:22:50.898Z,103035.91
2023-01-25T18:25:32.707Z,103022.94
2023-01-25T18:27:59.436Z,103020.34
2023-01-25T18:30:39.300Z,103016.84
2023-01-25T18:33:05.782Z,103027.19
2023-01-25T18:35:32.417Z,103023.81
2023-01-25T18:37:58.819Z,103016.09
2023-01-25T18:40:25.512Z,103022.16
2023-01-25T18:42:52.853Z,103016.94
2023-01-25T18:45:19.784Z,103005.75
2023-01-25T18:47:46.795Z,103016.97
2023-01-25T18:50:16.387Z,103020.41
2023-01-25T18:52:43.647Z,103020.47
2023-01-25T18:55:12.065Z,103021.31
2023-01-25T18:57:39.220Z,103016.16
2023-01-25T19:00:06.713Z,103017.88
2023-01-25T19:02:33.087Z,103010.06
2023-01-25T19:05:00.332Z,103005.78
2023-01-25T19:07:26.706Z,103004.97
2023-01-25T19:09:53.023Z,102999.78
2023-01-25T19:12:19.347Z,102995.47
2023-01-25T19:14:45.772Z,103000.63
2023-01-25T19:17:12.290Z,102993.69
2023-01-25T19:19:38.755Z,102987.72
2023-01-25T19:22:05.130Z,102998.03
2023-01-25T19:24:31.562Z,102988.59
2023-01-25T19:26:58.173Z,102979.94
2023-01-25T19:29:24.563Z,102983.34
2023-01-25T19:31:50.967Z,102973.00
2023-01-25T19:34:17.388Z,102967.84
2023-01-25T19:36:50.002Z,102976.41
2023-01-25T19:39:17.457Z,102961.81
2023-01-25T19:41:43.936Z,102963.56
2023-01-25T19:44:12.793Z,102955.78
2023-01-25T19:46:39.490Z,102951.44
2023-01-25T19:49:08.584Z,102949.72
2023-01-25T19:51:37.750Z,102953.22
2023-01-25T19:54:06.778Z,102952.38
2023-01-25T19:56:42.328Z,102951.50
2023-01-25T19:59:21.056Z,102943.72
2023-01-25T20:01:48.360Z,102935.97
2023-01-25T20:04:19.551Z,102936.03
2023-01-25T20:06:46.183Z,102933.44
2023-01-25T20:09:14.313Z,102927.34
2023-01-25T20:11:41.456Z,102915.25
2023-01-25T20:14:07.943Z,102923.91
2023-01-25T20:16:35.331Z,102929.03
2023-01-25T20:19:03.127Z,102928.19
2023-01-25T20:21:31.287Z,102929.13
2023-01-25T20:24:02.405Z,102930.88
2023-01-25T20:26:37.288Z,102920.53
2023-01-25T20:29:04.193Z,102918.88
2023-01-25T20:31:33.649Z,102909.38
2023-01-25T20:34:03.562Z,102907.69
2023-01-25T20:36:31.783Z,102918.84
2023-01-25T20:38:58.260Z,102915.44
2023-01-25T20:41:24.955Z,102906.84
2023-01-25T20:43:53.833Z,102910.28
2023-01-25T20:46:21.479Z,102913.69
2023-01-25T20:48:48.129Z,102916.25
2023-01-25T20:51:16.939Z,102914.50
2023-01-25T20:53:45.048Z,102906.69
2023-01-25T20:56:13.276Z,102903.31
2023-01-25T20:58:39.943Z,102905.03
2023-01-25T21:01:15.052Z,102901.56
2023-01-25T21:03:41.432Z,102911.84
2023-01-25T21:06:08.373Z,102911.84
2023-01-25T21:08:34.833Z,102904.13
2023-01-25T21:11:01.435Z,102901.56
2023-01-25T21:13:29.224Z,102898.09
2023-01-25T21:16:10.595Z,102893.81
2023-01-25T21:18:41.254Z,102904.19
2023-01-25T21:21:10.735Z,102904.97
2023-01-25T21:23:39.667Z,102898.09
2023-01-25T21:26:06.962Z,102900.69
2023-01-25T21:28:34.699Z,102905.91
2023-01-25T21:31:13.138Z,102901.56
2023-01-25T21:33:40.355Z,102895.47
2023-01-25T21:36:11.597Z,102887.63
2023-01-25T21:38:39.567Z,102892.88
2023-01-25T21:41:08.372Z,102887.69
2023-01-25T21:43:55.244Z,102884.19
2023-01-25T21:46:27.320Z,102889.41
2023-01-25T21:49:17.415Z,102887.69
2023-01-25T21:51:49.647Z,102889.41
2023-01-25T21:54:17.677Z,102892.88
2023-01-25T21:56:45.520Z,102893.69
2023-01-25T21:59:12.035Z,102896.16
2023-01-25T22:01:38.841Z,102885.75
2023-01-25T22:04:05.775Z,102878.94
2023-01-25T22:06:33.067Z,102882.47
2023-01-25T22:08:59.385Z,102882.41
2023-01-25T22:11:26.071Z,102883.28
2023-01-25T22:13:52.414Z,102885.94
2023-01-25T22:16:18.851Z,102876.44
2023-01-25T22:18:45.340Z,102881.63
2023-01-25T22:21:19.904Z,102879.06
2023-01-25T22:23:47.169Z,102874.78
2023-01-25T22:26:18.811Z,102867.91
2023-01-25T22:28:46.745Z,102867.00
2023-01-25T22:31:21.794Z,102867.84
2023-01-25T22:33:49.331Z,102864.38
2023-01-25T22:36:17.934Z,102861.75
2023-01-25T22:38:44.524Z,102859.25
2023-01-25T22:41:16.457Z,102856.59
2023-01-25T22:43:43.423Z,102848.91
2023-01-25T22:46:15.363Z,102848.03
2023-01-25T22:48:41.753Z,102843.75
2023-01-25T22:51:25.219Z,102839.44
2023-01-25T22:53:52.270Z,102830.00
2023-01-25T22:56:21.123Z,102831.72
2023-01-25T22:58:48.230Z,102827.41
2023-01-25T23:01:17.424Z,102815.34
2023-01-25T23:03:44.001Z,102822.25
2023-01-25T23:06:14.380Z,102823.06
2023-01-25T23:08:41.466Z,102818.81
2023-01-25T23:11:13.491Z,102815.34
2023-01-25T23:13:40.176Z,102815.34
2023-01-25T23:16:09.410Z,102811.03
2023-01-25T23:18:51.685Z,102805.88
2023-01-25T23:21:20.760Z,102810.13
2023-01-25T23:23:48.053Z,102796.25
2023-01-25T23:26:15.781Z,102804.03
2023-01-25T23:28:42.367Z,102798.84
2023-01-25T23:31:17.191Z,102801.47
2023-01-25T23:33:48.986Z,102795.44
2023-01-25T23:36:18.407Z,102793.69
2023-01-25T23:38:46.351Z,102791.16
2023-01-25T23:41:13.406Z,102794.66
2023-01-25T23:43:40.010Z,102779.13
2023-01-25T23:46:06.779Z,102782.59
2023-01-25T23:48:33.431Z,102777.41
2023-01-25T23:51:00.134Z,102770.50
2023-01-25T23:53:27.400Z,102771.34
2023-01-25T23:56:08.434Z,102781.69
2023-01-25T23:58:36.246Z,102774.75
